• Join FlightAware (Why Join?)
  • Login
  • US Flag 
01:47PM EDT


 

Airport Tracker/Info


-or-


 

Live Flight TrackerFlight Track Log ✈ AWE3972 ✈ 10-Feb-2014 ✈ KMHT - KPHL

Flight Track Log - Related Links

Times and Time Zones

All times are in EST time to prevent confusion due to time zone crossing. See the AWE3972 flight status page for this flight to view local times or setup timezone preferences in your user account.

Time Position Orientation Groundspeed Altitude Reporting Facility
EST Latitude Longitude Course Direction KTS MPH feet Rate Location/Type
10:20AM 42.9758 -71.4539 330° Northwest 155 178 3,200  Level Boston Center
10:21AM 43.0042 -71.5169 302° West 195 224 6,000 2,220 Climbing Boston Center
10:22AM 43.0275 -71.5803 297° West 235 270 7,800 2,460 Climbing Boston Center
10:24AM 43.0397 -71.8011 274° West 273 314 13,600 2,640 Climbing Boston Center
10:25AM 42.9500 -72.2091 270° West  Level FlightAware Approximate
10:25AM 43.0375 -71.9186 269° West 288 331 15,900  Level Boston Center
10:26AM 43.0350 -72.0336 268° West 301 346 17,700 1,020 Climbing Boston Center
10:27AM 43.0319 -72.1556 268° West 322 371 18,000 120 Climbing Boston Center
10:28AM 43.0289 -72.2814 268° West 340 391 18,000  Level Boston Center
10:29AM 43.0231 -72.4103 267° West 341 392 18,000  Level Boston Center
10:30AM 43.0206 -72.5386 269° West 341 392 18,000  Level Boston Center
10:31AM 43.0175 -72.6661 268° West 339 390 18,000  Level Boston Center
10:32AM 43.0131 -72.7892 267° West 331 381 18,000  Level Boston Center
10:33AM 43.0094 -72.9136 268° West 330 380 18,000  Level Boston Center
10:34AM 43.0047 -73.0589 268° West 332 382 18,000  Level Boston Center
10:35AM 42.9997 -73.1936 267° West 331 381 18,000  Level Boston Center
10:36AM 42.9956 -73.3178 267° West 328 377 18,000  Level Boston Center
10:37AM 42.9489 -73.4267 240° Southwest 334 384 18,000  Level Boston Center
10:38AM 42.8944 -73.5300 234° Southwest 335 386 18,000  Level Boston Center
10:39AM 42.8397 -73.6319 234° Southwest 334 384 18,000  Level Boston Center
10:40AM 42.7811 -73.7417 234° Southwest 332 382 18,000  Level Boston Center
10:41AM 42.7311 -73.8322 233° Southwest 333 383 18,000  Level Boston Center
10:42AM 42.6753 -73.9519 238° Southwest 330 380 18,000  Level Boston Center
10:43AM 42.6242 -74.0572 237° Southwest 332 382 18,000  Level Boston Center
10:44AM 42.5742 -74.1592 236° Southwest 326 375 18,000  Level Boston Center
10:45AM 42.5244 -74.2611 237° Southwest 324 373 18,000  Level Boston Center
10:46AM 42.4747 -74.3617 236° Southwest 322 371 18,000  Level Boston Center
10:47AM 42.4256 -74.4633 237° Southwest 322 371 18,000  Level Boston Center
10:48AM 42.3717 -74.5706 236° Southwest 321 369 18,000  Level Boston Center
10:49AM 42.3231 -74.6692 236° Southwest 316 364 18,000  Level Boston Center
10:51AM 42.2753 -74.7647 236° Southwest 315 362 18,000  Level Boston Center
10:52AM 42.2264 -74.8611 236° Southwest 312 359 18,000  Level Boston Center
10:54AM 42.1000 -75.0206 223° Southwest 320 368 18,000  Level Boston Center
10:55AM 42.0147 -75.0911 212° Southwest 328 377 18,000  Level Boston Center
10:56AM 41.9469 -75.1461 211° Southwest 329 379 18,000  Level Boston Center
10:57AM 41.8669 -75.2119 212° Southwest 328 377 18,000  Level New York Center
10:59AM 41.7175 -75.3347 212° Southwest 318 366 18,000 -540 Level Boston Center
11:00AM 41.6292 -75.4050 211° Southwest 319 367 16,400 -1,800 Descending New York Center
11:01AM 41.5508 -75.4681 211° Southwest 318 366 14,400 -1,980 Descending New York Center
11:02AM 41.4686 -75.5347 211° Southwest 328 377 12,400 -1,260 Descending New York Center
11:03AM 41.3922 -75.5956 211° Southwest 329 379 11,900 -240 Descending New York Center
11:04AM 41.3142 -75.6578 211° Southwest 329 379 12,000  Climbing New York Center
11:05AM 41.2139 -75.6883 193° South 347 399 12,000  Level New York Center
11:06AM 41.1150 -75.6844 178° South 345 397 12,000  Level New York Center
11:07AM 41.0236 -75.6506 164° South 353 406 12,000  Level New York Center
11:08AM 40.9247 -75.6128 164° South 347 399 12,000  Level New York Center
11:09AM 40.8286 -75.5761 164° South 346 398 12,000  Level New York Center
11:10AM 40.7356 -75.5406 164° South 349 402 12,000  Level New York Center
11:11AM 40.6333 -75.5006 163° South 354 407 12,000 -540 Level New York Center
11:12AM 40.5397 -75.4656 164° South 355 409 10,900 -1,020 Descending New York Center
11:13AM 40.4544 -75.4344 164° South 311 358 9,900 -540 Descending New York Center
11:14AM 40.3772 -75.3894 156° South 293 337 9,900  Level New York Center
11:15AM 40.2986 -75.3439 156° South 296 341 9,900 -120 Level New York Center
11:16AM 40.2214 -75.2989 156° South 291 335 9,700 -960 Descending New York Center
11:17AM 40.1461 -75.2556 156° South 289 333 8,000 -1,620 Descending New York Center
11:18AM 40.0839 -75.1808 137° Southeast 303 349 6,400 -1,020 Descending New York Center
11:19AM 40.0286 -75.1142 137° Southeast 270 311 6,000 -720 Descending New York Center
11:20AM 39.9831 -75.0592 137° Southeast 209 241 5,000 -1,260 Descending New York Center
11:21AM 39.9350 -75.0408 164° South 187 215 3,500 -1,260 Descending New York Center
11:22AM 39.9025 -75.0853 226° Southwest 174 200 2,400 -1,020 Descending New York Center
11:23AM 39.8908 -75.1450 256° West 163 188 1,500 -840 Descending New York Center
11:24AM 39.8819 -75.1897 255° West 141 162 700 -780 Descending New York Center